Time;durP1;ratioP1;P1;durP2;ratioP2;P2;SDS_P1;SDS_P2;PMS_P1;PMS_P2;Temp;Humidity;BMP_temperature;BMP_pressure;BME280_temperature;BME280_humidity;BME280_pressure;Samples;Min_cycle;Max_cycle;Signal;HPM_P1;HPM_P2
2022/11/10 00:00:35;;;;;;;21.33;4.18;;;11.00;99.90;;;;;;5073453;28;20071;-73
2022/11/10 00:03:19;;;;;;;22.10;3.40;;;10.90;99.90;;;;;;5073177;28;20039;-73
2022/11/10 00:06:05;;;;;;;17.15;3.35;;;10.90;99.90;;;;;;5073002;28;20059;-72
2022/11/10 00:08:49;;;;;;;25.42;4.18;;;10.90;99.90;;;;;;5073478;28;20128;-70
2022/11/10 00:11:33;;;;;;;18.02;4.13;;;10.90;99.90;;;;;;5072840;28;20127;-69
2022/11/10 00:17:20;;;;;;;19.40;3.95;;;10.70;99.90;;;;;;5072960;28;20043;-70
2022/11/10 00:20:05;;;;;;;22.65;3.58;;;10.70;99.90;;;;;;5072815;28;20131;-70
2022/11/10 00:22:49;;;;;;;25.25;4.13;;;10.80;99.90;;;;;;5072163;28;20094;-70
2022/11/10 00:25:33;;;;;;;17.98;4.15;;;10.80;99.90;;;;;;5072320;28;20439;-72
2022/11/10 00:28:17;;;;;;;26.38;4.68;;;10.70;99.90;;;;;;5072651;28;20040;-73
2022/11/10 00:31:05;;;;;;;27.20;4.32;;;10.70;99.90;;;;;;5072946;28;20586;-71
2022/11/10 00:33:50;;;;;;;18.50;4.25;;;10.70;99.90;;;;;;5073662;28;20086;-73
2022/11/10 00:36:34;;;;;;;15.25;3.75;;;10.80;99.90;;;;;;5072746;28;20052;-73
2022/11/10 00:39:18;;;;;;;23.45;3.90;;;10.70;99.90;;;;;;5072613;28;20593;-72
2022/11/10 00:42:03;;;;;;;21.60;3.47;;;10.70;99.90;;;;;;5072664;28;20115;-73
2022/11/10 00:44:48;;;;;;;21.83;4.15;;;10.80;99.90;;;;;;5049494;28;20087;-72
2022/11/10 00:47:32;;;;;;;21.83;3.75;;;10.70;99.90;;;;;;5047464;28;20051;-72
2022/11/10 00:50:16;;;;;;;22.70;4.00;;;10.80;99.90;;;;;;5072651;28;20068;-73
2022/11/10 00:53:00;;;;;;;26.55;5.00;;;10.70;99.90;;;;;;5072837;28;20039;-73
2022/11/10 00:55:45;;;;;;;24.23;3.65;;;10.80;99.90;;;;;;5072792;28;20098;-72
2022/11/10 00:58:32;;;;;;;20.95;3.25;;;10.80;99.90;;;;;;5072263;28;20048;-73
2022/11/10 01:01:18;;;;;;;27.27;5.07;;;10.90;99.90;;;;;;5071029;28;20028;-73
2022/11/10 01:04:02;;;;;;;19.80;4.10;;;11.00;99.90;;;;;;5072651;28;20040;-73
2022/11/10 01:06:47;;;;;;;13.38;3.97;;;11.00;99.90;;;;;;5072435;28;20043;-73
2022/11/10 01:09:31;;;;;;;21.25;4.63;;;10.90;99.90;;;;;;5072314;28;20129;-70
2022/11/10 01:12:15;;;;;;;21.13;3.90;;;10.70;99.90;;;;;;5072998;28;20078;-70
2022/11/10 01:14:59;;;;;;;23.45;4.00;;;10.70;99.90;;;;;;5072852;28;20396;-73
2022/11/10 01:17:43;;;;;;;16.13;3.83;;;10.70;99.90;;;;;;5072371;28;20067;-69
2022/11/10 01:20:28;;;;;;;23.98;3.75;;;10.80;99.90;;;;;;5072584;28;20032;-72
2022/11/10 01:23:12;;;;;;;35.17;4.47;;;10.70;99.90;;;;;;5072038;28;20031;-73
2022/11/10 01:26:00;;;;;;;28.98;4.70;;;10.60;99.90;;;;;;5072711;28;20055;-73
2022/11/10 01:28:45;;;;;;;13.13;3.47;;;10.60;99.90;;;;;;5072150;28;20145;-73
2022/11/10 01:31:29;;;;;;;24.55;4.60;;;10.50;99.90;;;;;;5071994;28;20093;-72
2022/11/10 01:34:14;;;;;;;18.73;4.18;;;10.50;99.90;;;;;;5071365;28;20105;-73
2022/11/10 01:36:58;;;;;;;15.98;3.63;;;10.50;99.90;;;;;;5071645;28;20086;-72
2022/11/10 01:39:42;;;;;;;24.77;5.32;;;10.50;99.90;;;;;;5076049;28;20039;-73
2022/11/10 01:42:39;;;;;;;25.52;4.57;;;10.50;99.90;;;;;;5076064;28;20059;-72
2022/11/10 01:45:23;;;;;;;17.35;3.50;;;10.40;99.90;;;;;;5075787;28;20116;-72
2022/11/10 01:48:12;;;;;;;18.13;3.30;;;10.40;99.90;;;;;;5075691;28;20051;-72
2022/11/10 01:51:01;;;;;;;24.25;4.38;;;10.30;99.90;;;;;;5076235;28;20043;-72
2022/11/10 01:53:56;;;;;;;17.30;3.70;;;10.30;99.90;;;;;;5075688;28;20055;-72
2022/11/10 01:56:50;;;;;;;19.38;3.53;;;10.30;99.90;;;;;;5075649;28;20039;-70
2022/11/10 01:59:39;;;;;;;28.13;4.55;;;10.20;99.90;;;;;;5075700;28;20055;-73
2022/11/10 02:02:35;;;;;;;19.65;3.72;;;10.10;99.90;;;;;;5074844;28;20447;-73
2022/11/10 02:05:21;;;;;;;29.20;4.82;;;10.10;99.90;;;;;;5075593;28;20047;-69
2022/11/10 02:08:06;;;;;;;21.60;4.10;;;10.00;99.90;;;;;;5074916;28;20055;-70
2022/11/10 02:10:50;;;;;;;22.50;4.45;;;10.00;99.90;;;;;;5074843;28;20039;-72
2022/11/10 02:13:34;;;;;;;26.08;4.65;;;10.10;99.90;;;;;;5075436;28;20051;-71
2022/11/10 02:16:20;;;;;;;29.20;4.20;;;9.90;99.90;;;;;;5074772;28;20047;-73
2022/11/10 02:19:37;;;;;;;23.42;4.90;;;9.90;99.90;;;;;;5075546;28;20406;-72
2022/11/10 02:22:22;;;;;;;17.48;4.50;;;10.00;99.90;;;;;;5074910;28;20104;-71
2022/11/10 02:25:07;;;;;;;20.73;4.72;;;9.90;99.90;;;;;;5075066;28;20032;-70
2022/11/10 02:27:51;;;;;;;21.15;4.07;;;9.90;99.90;;;;;;5075067;28;20052;-71
2022/11/10 02:30:35;;;;;;;29.75;4.40;;;9.90;99.90;;;;;;5075170;28;20078;-69
2022/11/10 02:33:19;;;;;;;30.98;5.78;;;10.00;99.90;;;;;;5074932;28;20086;-69
2022/11/10 02:36:04;;;;;;;17.33;3.80;;;9.90;99.90;;;;;;5074895;28;20040;-69
2022/11/10 02:38:48;;;;;;;24.65;4.70;;;9.90;99.90;;;;;;5074741;28;20047;-69
2022/11/10 02:41:34;;;;;;;30.08;4.40;;;9.90;99.90;;;;;;5074907;28;20535;-69
2022/11/10 02:44:18;;;;;;;22.85;4.55;;;9.90;99.90;;;;;;5073254;28;20511;-69
2022/11/10 02:47:03;;;;;;;23.23;4.32;;;9.80;99.90;;;;;;5075266;28;20040;-69
2022/11/10 02:49:47;;;;;;;30.10;4.05;;;9.80;99.90;;;;;;5073920;28;20047;-69
2022/11/10 02:52:32;;;;;;;16.80;4.50;;;9.90;99.90;;;;;;5074960;28;20077;-72
2022/11/10 02:55:16;;;;;;;31.33;5.20;;;9.70;99.90;;;;;;5074901;28;20099;-69
2022/11/10 02:58:00;;;;;;;24.80;5.60;;;9.80;99.90;;;;;;5074511;28;20434;-70
2022/11/10 03:00:45;;;;;;;19.83;4.68;;;9.90;99.90;;;;;;5074868;28;20510;-70
2022/11/10 03:03:29;;;;;;;29.63;5.15;;;10.10;99.90;;;;;;5043389;28;20091;-70
2022/11/10 03:06:13;;;;;;;27.88;4.78;;;10.00;99.90;;;;;;5053244;28;20458;-70
2022/11/10 03:08:57;;;;;;;26.27;4.85;;;10.00;99.90;;;;;;5054022;28;20059;-72
2022/11/10 03:11:41;;;;;;;27.15;5.10;;;10.00;99.90;;;;;;5054136;28;20114;-72
2022/11/10 03:14:25;;;;;;;25.15;5.43;;;10.10;99.90;;;;;;5041713;28;20082;-71
2022/11/10 03:17:09;;;;;;;22.85;4.78;;;10.10;99.90;;;;;;5054212;28;20039;-72
2022/11/10 03:19:53;;;;;;;28.08;5.28;;;9.90;99.90;;;;;;5054017;28;20102;-72
2022/11/10 03:22:37;;;;;;;16.85;3.78;;;9.90;99.90;;;;;;5053961;28;20028;-73
2022/11/10 03:25:21;;;;;;;31.90;5.15;;;9.90;99.90;;;;;;5053883;28;20045;-72
2022/11/10 03:28:05;;;;;;;28.35;4.47;;;9.90;99.90;;;;;;5041681;28;20095;-73
2022/11/10 03:30:50;;;;;;;34.42;5.03;;;9.80;99.90;;;;;;5053607;28;20448;-70
2022/11/10 03:33:34;;;;;;;28.70;4.35;;;10.00;99.90;;;;;;5053547;28;20129;-72
2022/11/10 03:36:18;;;;;;;24.10;4.40;;;10.00;99.90;;;;;;5053657;28;20062;-69
2022/11/10 03:39:03;;;;;;;21.63;4.55;;;10.00;99.90;;;;;;5053384;28;20056;-73
2022/11/10 03:41:47;;;;;;;18.30;3.63;;;10.30;99.90;;;;;;5041261;28;20491;-73
2022/11/10 03:44:31;;;;;;;18.95;3.70;;;10.20;99.90;;;;;;5053435;28;20036;-73
2022/11/10 03:47:16;;;;;;;20.17;4.50;;;10.20;99.90;;;;;;5054059;28;20071;-70
2022/11/10 03:50:00;;;;;;;23.17;6.50;;;10.40;99.90;;;;;;5052571;28;20043;-70
2022/11/10 03:52:45;;;;;;;21.13;4.80;;;10.40;99.90;;;;;;5053496;28;20035;-70
2022/11/10 03:55:30;;;;;;;32.40;4.32;;;10.40;99.90;;;;;;5053671;28;20040;-70
2022/11/10 03:58:14;;;;;;;22.35;3.72;;;10.30;99.90;;;;;;5053035;28;20110;-71
2022/11/10 04:00:59;;;;;;;24.25;4.68;;;10.30;99.90;;;;;;5052355;28;20093;-69
2022/11/10 04:03:43;;;;;;;22.15;4.97;;;10.30;99.90;;;;;;5039409;28;20575;-72
2022/11/10 04:09:31;;;;;;;22.98;5.40;;;10.10;99.90;;;;;;5047982;28;20115;-72
2022/11/10 04:18:23;;;;;;;27.00;5.10;;;9.90;99.90;;;;;;5052927;28;20088;-70
2022/11/10 04:21:07;;;;;;;29.05;6.18;;;9.90;99.90;;;;;;5052975;28;20111;-70
2022/11/10 04:23:51;;;;;;;34.15;4.78;;;9.90;99.90;;;;;;5053049;28;20064;-69
2022/11/10 04:26:41;;;;;;;29.67;5.68;;;9.80;99.90;;;;;;5052828;28;20040;-73
2022/11/10 04:29:25;;;;;;;24.92;4.97;;;9.90;99.90;;;;;;5039729;28;20171;-72
2022/11/10 04:32:09;;;;;;;29.00;5.10;;;9.90;99.90;;;;;;5052349;28;20032;-72
2022/11/10 04:34:53;;;;;;;37.13;6.43;;;9.80;99.90;;;;;;5052663;28;20048;-73
2022/11/10 04:37:37;;;;;;;34.17;6.28;;;9.90;99.90;;;;;;5052474;28;20512;-72
2022/11/10 04:40:21;;;;;;;30.63;6.10;;;9.80;99.90;;;;;;5052917;28;20067;-72
2022/11/10 04:43:05;;;;;;;34.75;6.00;;;9.80;99.90;;;;;;5040541;28;20467;-72
2022/11/10 04:45:49;;;;;;;32.55;6.05;;;9.70;99.90;;;;;;5051983;28;20031;-70
2022/11/10 04:48:34;;;;;;;25.73;4.80;;;9.70;99.90;;;;;;5052603;28;20237;-73
2022/11/10 04:51:22;;;;;;;28.58;5.30;;;9.70;99.90;;;;;;5051704;28;20056;-72
2022/11/10 04:54:06;;;;;;;29.73;5.15;;;9.80;99.90;;;;;;5052728;28;20098;-72
2022/11/10 04:56:51;;;;;;;28.50;6.05;;;9.80;99.90;;;;;;5052263;28;20082;-72
2022/11/10 04:59:35;;;;;;;18.73;4.95;;;9.80;99.90;;;;;;5052882;28;20071;-73
2022/11/10 05:02:19;;;;;;;32.58;5.03;;;9.80;99.90;;;;;;5052817;28;20048;-72
2022/11/10 05:05:04;;;;;;;21.08;4.97;;;9.80;99.90;;;;;;5038865;28;20295;-73
2022/11/10 05:07:51;;;;;;;27.33;5.45;;;9.70;99.90;;;;;;5052013;28;20397;-69
2022/11/10 05:10:37;;;;;;;32.53;7.00;;;9.80;99.90;;;;;;5051887;28;20389;-69
2022/11/10 05:13:21;;;;;;;29.13;6.45;;;9.70;99.90;;;;;;5055423;28;20079;-70
2022/11/10 05:16:05;;;;;;;23.00;4.38;;;9.70;99.90;;;;;;5055801;28;20032;-69
2022/11/10 05:18:53;;;;;;;32.10;5.57;;;9.80;99.90;;;;;;5055010;28;20043;-69
2022/11/10 05:21:37;;;;;;;25.10;5.40;;;9.90;99.90;;;;;;5056325;28;20083;-72
2022/11/10 05:24:22;;;;;;;31.98;5.47;;;10.00;99.90;;;;;;5043832;28;20044;-72
2022/11/10 05:27:07;;;;;;;35.72;5.05;;;9.70;99.90;;;;;;5056001;28;20043;-72
2022/11/10 05:29:51;;;;;;;18.80;4.55;;;9.70;99.90;;;;;;5055952;28;20408;-71
2022/11/10 05:32:36;;;;;;;31.00;6.43;;;9.80;99.90;;;;;;5055970;28;20044;-72
2022/11/10 05:35:21;;;;;;;25.48;4.75;;;9.70;99.90;;;;;;5056186;28;20040;-69
2022/11/10 05:38:06;;;;;;;29.13;5.63;;;9.80;99.90;;;;;;5044334;28;20083;-70
2022/11/10 05:40:50;;;;;;;27.90;6.20;;;9.80;99.90;;;;;;5055866;28;20056;-69
2022/11/10 05:43:35;;;;;;;37.83;6.00;;;9.70;99.90;;;;;;5055921;28;20036;-71
2022/11/10 05:46:18;;;;;;;34.60;5.47;;;9.80;99.90;;;;;;5042151;28;20043;-70
2022/11/10 05:49:02;;;;;;;33.72;6.15;;;9.70;99.90;;;;;;5055588;28;20056;-71
2022/11/10 05:51:46;;;;;;;22.95;5.60;;;9.70;99.90;;;;;;5055975;28;20048;-71
2022/11/10 05:54:30;;;;;;;21.33;4.78;;;9.60;99.90;;;;;;5055795;28;20448;-73
2022/11/10 05:57:15;;;;;;;36.85;6.72;;;9.60;99.90;;;;;;5055574;28;20581;-69
2022/11/10 05:59:59;;;;;;;22.35;5.75;;;9.60;99.90;;;;;;5042032;28;20032;-70
2022/11/10 06:02:43;;;;;;;32.78;6.07;;;9.60;99.90;;;;;;5055559;28;20110;-69
2022/11/10 06:05:30;;;;;;;45.15;5.75;;;9.70;99.90;;;;;;5055441;28;20103;-69
2022/11/10 06:08:16;;;;;;;34.58;6.60;;;9.60;99.90;;;;;;5055188;28;20048;-69
2022/11/10 06:11:00;;;;;;;32.60;6.50;;;9.60;99.90;;;;;;5055575;28;20032;-69
2022/11/10 06:13:44;;;;;;;32.67;5.57;;;9.50;99.90;;;;;;5053071;28;20098;-69
2022/11/10 06:16:28;;;;;;;26.80;5.47;;;9.40;99.90;;;;;;5055239;28;20504;-69
2022/11/10 06:19:12;;;;;;;36.83;5.30;;;9.30;99.90;;;;;;5042131;28;20048;-69
2022/11/10 06:21:56;;;;;;;32.55;6.15;;;9.40;99.90;;;;;;5055442;28;20032;-70
2022/11/10 06:24:41;;;;;;;25.80;5.07;;;9.50;99.90;;;;;;5054359;28;20035;-69
2022/11/10 06:27:25;;;;;;;23.65;5.20;;;9.40;99.90;;;;;;5054541;28;20087;-70
2022/11/10 06:30:09;;;;;;;28.92;4.60;;;9.30;99.90;;;;;;5055355;28;20083;-70
2022/11/10 06:32:54;;;;;;;34.47;6.57;;;9.50;99.90;;;;;;5042474;28;20098;-70
2022/11/10 06:35:38;;;;;;;25.38;4.97;;;9.30;99.90;;;;;;5054474;28;20504;-69
2022/11/10 06:38:22;;;;;;;24.25;5.68;;;9.40;99.90;;;;;;5054735;28;20136;-70
2022/11/10 06:41:07;;;;;;;28.73;5.82;;;9.30;99.90;;;;;;5054593;28;20042;-70
2022/11/10 06:43:51;;;;;;;34.38;6.57;;;9.40;99.90;;;;;;5054747;28;20040;-69
2022/11/10 06:46:35;;;;;;;32.83;6.68;;;9.50;99.90;;;;;;5043015;28;20131;-70
2022/11/10 06:49:19;;;;;;;30.30;6.05;;;9.70;99.90;;;;;;5054386;28;20064;-69
2022/11/10 06:52:04;;;;;;;29.73;4.82;;;9.50;99.90;;;;;;5054562;28;20036;-70
2022/11/10 06:54:48;;;;;;;30.38;5.88;;;9.50;99.90;;;;;;5054598;28;20044;-69
2022/11/10 06:57:38;;;;;;;26.35;5.03;;;9.50;99.90;;;;;;5052949;28;20091;-69
2022/11/10 07:00:24;;;;;;;34.38;5.72;;;9.50;99.90;;;;;;5054539;28;20051;-71
2022/11/10 07:03:12;;;;;;;42.15;5.35;;;9.40;99.90;;;;;;5054152;28;20095;-71
2022/11/10 07:05:57;;;;;;;28.60;4.78;;;9.40;99.90;;;;;;5054811;28;20503;-70
2022/11/10 07:08:41;;;;;;;25.85;5.25;;;9.50;99.90;;;;;;5043006;28;20044;-70
2022/11/10 07:11:25;;;;;;;25.98;4.78;;;9.40;99.90;;;;;;5039968;28;20098;-72
2022/11/10 07:14:10;;;;;;;29.48;5.68;;;9.50;99.90;;;;;;5049036;28;20041;-72
2022/11/10 07:16:54;;;;;;;30.50;6.07;;;9.50;99.90;;;;;;5051861;28;20047;-72
2022/11/10 07:19:38;;;;;;;34.30;6.38;;;9.50;99.90;;;;;;5044499;28;20052;-72
2022/11/10 07:22:23;;;;;;;28.90;5.03;;;9.40;99.90;;;;;;5054437;28;20043;-72
2022/11/10 07:25:08;;;;;;;28.00;5.30;;;9.50;99.90;;;;;;5065517;28;20152;-72
2022/11/10 07:27:54;;;;;;;33.35;5.57;;;9.60;99.90;;;;;;5054361;28;20067;-72
2022/11/10 07:30:40;;;;;;;33.22;6.43;;;9.50;99.90;;;;;;5056068;28;20071;-72
2022/11/10 07:33:24;;;;;;;25.90;5.68;;;9.50;99.90;;;;;;5066834;28;20097;-72
2022/11/10 07:36:08;;;;;;;29.65;6.32;;;9.60;99.90;;;;;;5058736;28;20508;-73
2022/11/10 07:38:52;;;;;;;31.73;5.18;;;9.80;99.90;;;;;;5061983;28;20024;-72
2022/11/10 07:41:37;;;;;;;37.20;6.57;;;9.80;99.90;;;;;;5053363;28;20099;-73
2022/11/10 07:44:21;;;;;;;25.30;5.13;;;10.00;99.90;;;;;;5049611;28;20118;-73
2022/11/10 07:47:05;;;;;;;23.00;4.93;;;9.90;99.90;;;;;;5052153;28;20420;-72
2022/11/10 07:49:50;;;;;;;29.23;5.70;;;10.00;99.90;;;;;;5053334;28;20563;-71
2022/11/10 07:52:34;;;;;;;25.90;5.13;;;10.20;99.90;;;;;;5051749;28;20044;-72
2022/11/10 07:55:19;;;;;;;31.15;6.00;;;10.30;99.90;;;;;;5053328;28;20059;-72
2022/11/10 07:58:04;;;;;;;28.02;5.93;;;10.10;99.90;;;;;;5052256;28;20075;-72
2022/11/10 08:00:48;;;;;;;35.55;6.07;;;10.10;99.90;;;;;;5053074;28;20095;-72
2022/11/10 08:03:32;;;;;;;21.35;5.35;;;10.20;99.90;;;;;;5050444;28;20134;-72
2022/11/10 08:06:16;;;;;;;33.90;6.82;;;10.20;99.90;;;;;;5053241;28;20036;-73
2022/11/10 08:09:01;;;;;;;32.25;6.05;;;10.40;99.90;;;;;;5052584;28;20064;-70
2022/11/10 08:11:45;;;;;;;34.05;7.20;;;10.50;99.90;;;;;;5053089;28;20086;-72
2022/11/10 08:14:30;;;;;;;24.70;6.07;;;10.50;99.90;;;;;;5053215;28;20102;-73
2022/11/10 08:17:14;;;;;;;30.83;7.97;;;10.60;99.90;;;;;;5053375;28;20114;-70
2022/11/10 08:19:58;;;;;;;27.13;5.82;;;10.80;99.90;;;;;;5053011;28;20052;-70
2022/11/10 08:22:43;;;;;;;33.55;5.63;;;10.80;99.90;;;;;;5041021;28;20047;-69
2022/11/10 08:25:29;;;;;;;25.52;5.53;;;10.90;99.90;;;;;;5052661;28;20044;-69
2022/11/10 08:28:16;;;;;;;24.80;4.85;;;10.90;99.90;;;;;;5052723;28;20213;-70
2022/11/10 08:31:02;;;;;;;23.58;5.30;;;11.00;99.90;;;;;;5039004;28;20497;-69
2022/11/10 08:33:46;;;;;;;33.30;4.95;;;11.00;99.90;;;;;;5052771;28;20094;-69
2022/11/10 08:36:31;;;;;;;27.45;6.72;;;10.90;99.90;;;;;;5052689;28;20543;-72
2022/11/10 08:39:15;;;;;;;19.38;4.28;;;10.90;99.90;;;;;;5052470;28;20036;-70
2022/11/10 08:41:59;;;;;;;21.90;4.50;;;10.90;99.90;;;;;;5052439;28;20063;-72
2022/11/10 08:44:43;;;;;;;26.58;6.05;;;11.00;99.90;;;;;;5039742;28;20032;-72
2022/11/10 08:47:27;;;;;;;31.08;7.47;;;11.10;99.90;;;;;;5049219;28;20036;-73
2022/11/10 08:50:11;;;;;;;31.63;6.88;;;11.30;99.90;;;;;;5044340;28;20051;-72
2022/11/10 08:52:56;;;;;;;27.70;5.88;;;11.50;99.90;;;;;;5048578;28;20040;-72
2022/11/10 08:55:41;;;;;;;23.90;4.80;;;11.70;99.90;;;;;;5048889;28;20098;-69
2022/11/10 08:58:26;;;;;;;25.67;5.72;;;11.80;99.90;;;;;;5044164;28;20048;-69
2022/11/10 09:01:11;;;;;;;18.58;4.35;;;11.70;99.90;;;;;;5051918;28;20099;-70
2022/11/10 09:03:55;;;;;;;24.73;5.60;;;11.60;99.90;;;;;;5048589;28;20035;-70
2022/11/10 09:06:39;;;;;;;29.70;5.30;;;11.80;99.90;;;;;;5058072;28;20031;-70
2022/11/10 09:09:26;;;;;;;27.00;5.80;;;11.90;99.90;;;;;;5056902;28;20126;-70
2022/11/10 09:12:10;;;;;;;16.70;4.82;;;12.40;99.90;;;;;;5043639;28;20392;-69
2022/11/10 09:14:54;;;;;;;13.75;4.50;;;12.40;99.90;;;;;;5048093;28;20032;-69
2022/11/10 09:17:39;;;;;;;20.88;4.95;;;12.40;99.90;;;;;;5055158;28;20035;-69
2022/11/10 09:20:26;;;;;;;21.63;4.05;;;12.40;99.90;;;;;;5060020;28;20128;-70
2022/11/10 09:23:14;;;;;;;26.52;6.38;;;12.50;99.90;;;;;;5051982;28;20045;-70
2022/11/10 09:25:58;;;;;;;32.00;7.32;;;13.00;99.90;;;;;;5051780;28;20047;-69
2022/11/10 09:28:42;;;;;;;21.30;5.60;;;12.80;99.90;;;;;;5052121;28;20102;-69
2022/11/10 09:31:27;;;;;;;19.95;4.90;;;13.10;99.90;;;;;;5059544;28;20032;-69
2022/11/10 09:34:11;;;;;;;20.48;4.65;;;13.20;99.90;;;;;;5056363;28;20095;-69
2022/11/10 09:36:55;;;;;;;15.27;3.85;;;13.40;99.90;;;;;;5052260;28;20047;-69
2022/11/10 09:39:40;;;;;;;18.02;4.13;;;13.40;99.90;;;;;;5049400;28;20124;-69
2022/11/10 09:42:35;;;;;;;21.73;5.28;;;13.30;99.90;;;;;;5059055;28;20162;-69
2022/11/10 09:45:19;;;;;;;23.23;4.35;;;13.10;99.90;;;;;;5055247;28;20056;-69
2022/11/10 09:48:35;;;;;;;22.08;4.28;;;13.40;99.90;;;;;;5047060;28;20087;-70
2022/11/10 09:51:25;;;;;;;19.60;5.18;;;13.30;99.90;;;;;;5040837;28;20056;-70
2022/11/10 09:54:21;;;;;;;26.75;5.30;;;14.00;99.90;;;;;;5051735;28;20044;-70
2022/11/10 09:57:09;;;;;;;23.67;5.25;;;13.90;99.90;;;;;;5041740;28;20044;-70
2022/11/10 09:59:53;;;;;;;16.63;5.07;;;13.80;99.90;;;;;;5053908;28;20098;-69
2022/11/10 10:02:48;;;;;;;24.27;4.57;;;14.10;99.90;;;;;;5055560;28;20032;-69
2022/11/10 10:05:51;;;;;;;22.00;4.90;;;14.10;99.90;;;;;;5055095;28;20098;-72
2022/11/10 10:09:07;;;;;;;21.75;4.57;;;14.30;99.90;;;;;;5055292;28;20511;-72
2022/11/10 10:12:23;;;;;;;15.55;3.10;;;15.20;99.90;;;;;;5055440;28;20032;-69
2022/11/10 10:15:20;;;;;;;15.52;3.63;;;14.40;99.90;;;;;;5055498;28;20524;-69
2022/11/10 10:18:09;;;;;;;30.48;4.15;;;14.30;99.90;;;;;;5055353;28;20594;-71
2022/11/10 10:21:12;;;;;;;12.80;3.28;;;14.40;99.90;;;;;;5042089;28;20550;-69
2022/11/10 10:23:58;;;;;;;19.45;3.80;;;14.60;99.90;;;;;;5051883;28;20397;-69
2022/11/10 10:26:51;;;;;;;17.38;3.92;;;14.50;99.90;;;;;;5055126;28;20391;-68
2022/11/10 10:29:43;;;;;;;16.25;4.90;;;15.00;99.90;;;;;;5054247;28;20098;-69
2022/11/10 10:32:27;;;;;;;21.05;3.47;;;14.70;99.90;;;;;;5054937;28;20051;-71
2022/11/10 10:35:14;;;;;;;23.65;3.92;;;14.90;99.90;;;;;;5054703;28;20113;-70
2022/11/10 10:38:00;;;;;;;18.35;4.03;;;14.50;99.90;;;;;;5054886;28;20183;-69
2022/11/10 10:40:47;;;;;;;13.50;3.70;;;14.40;99.90;;;;;;5048902;28;20040;-69
2022/11/10 10:43:32;;;;;;;17.35;3.92;;;14.90;99.90;;;;;;5045454;28;20088;-69
2022/11/10 10:46:19;;;;;;;25.02;3.90;;;15.10;99.90;;;;;;5040780;28;20535;-69
2022/11/10 10:49:14;;;;;;;15.18;4.00;;;14.90;99.90;;;;;;5046662;28;20087;-70
2022/11/10 10:52:16;;;;;;;19.65;3.90;;;15.40;99.90;;;;;;5052816;28;20153;-69
2022/11/10 10:55:07;;;;;;;17.10;3.15;;;15.00;99.90;;;;;;5054005;28;20040;-71
2022/11/10 10:57:57;;;;;;;24.33;3.72;;;15.00;99.90;;;;;;5052382;28;20035;-69
2022/11/10 11:00:50;;;;;;;13.55;3.50;;;15.70;99.90;;;;;;5060775;28;20040;-72
2022/11/10 11:03:46;;;;;;;18.73;3.38;;;16.10;99.90;;;;;;5059662;28;20106;-71
2022/11/10 11:06:33;;;;;;;13.10;3.35;;;16.00;99.90;;;;;;5057343;28;20040;-70
2022/11/10 11:09:23;;;;;;;11.63;3.13;;;16.30;99.90;;;;;;5056072;28;20087;-71
2022/11/10 11:12:16;;;;;;;16.10;4.22;;;16.50;99.90;;;;;;5050378;28;20098;-70
2022/11/10 11:15:25;;;;;;;14.75;4.05;;;16.90;99.90;;;;;;5067107;28;20099;-69
2022/11/10 11:18:19;;;;;;;19.35;3.67;;;16.40;99.90;;;;;;5045375;28;20044;-70
2022/11/10 11:21:14;;;;;;;19.25;2.90;;;16.20;99.90;;;;;;5052204;28;20040;-71
2022/11/10 11:24:11;;;;;;;16.63;3.22;;;15.60;99.90;;;;;;5051473;28;20036;-69
2022/11/10 11:27:16;;;;;;;15.48;3.13;;;15.40;99.90;;;;;;5058179;28;20036;-69
2022/11/10 11:30:22;;;;;;;16.52;3.70;;;15.60;99.90;;;;;;5050776;28;20102;-69
2022/11/10 11:33:43;;;;;;;15.18;3.35;;;16.20;99.90;;;;;;5056274;28;20040;-69
2022/11/10 11:36:44;;;;;;;15.70;3.25;;;16.30;99.90;;;;;;5041731;28;20103;-69
2022/11/10 11:39:41;;;;;;;10.52;3.28;;;16.90;99.90;;;;;;5058691;28;20040;-70
2022/11/10 11:42:45;;;;;;;11.82;2.58;;;17.60;99.90;;;;;;5047604;28;20038;-70
2022/11/10 11:45:42;;;;;;;15.50;3.38;;;17.60;99.90;;;;;;5055050;28;20156;-69
2022/11/10 11:48:48;;;;;;;15.18;3.17;;;17.40;99.90;;;;;;5049703;28;20093;-71
2022/11/10 11:52:20;;;;;;;15.32;3.00;;;16.90;99.90;;;;;;5058613;28;20055;-71
2022/11/10 11:55:16;;;;;;;13.20;2.60;;;16.20;99.90;;;;;;5045376;28;20516;-69
2022/11/10 11:58:32;;;;;;;11.20;3.53;;;16.20;99.90;;;;;;5049943;28;20163;-70
2022/11/10 12:01:42;;;;;;;12.30;3.42;;;16.30;99.90;;;;;;5052353;28;20117;-70
2022/11/10 12:05:07;;;;;;;14.05;3.08;;;16.40;99.90;;;;;;5053153;28;20079;-70
2022/11/10 12:08:00;;;;;;;12.80;2.85;;;16.90;99.90;;;;;;5049433;28;20047;-71
2022/11/10 12:10:59;;;;;;;15.25;3.17;;;16.80;99.90;;;;;;5053097;28;20094;-70
2022/11/10 12:14:13;;;;;;;11.95;2.63;;;17.60;99.90;;;;;;5053015;28;20039;-71
2022/11/10 12:17:20;;;;;;;17.38;3.30;;;16.60;99.90;;;;;;5052723;28;20079;-71
2022/11/10 12:20:43;;;;;;;12.48;2.53;;;17.60;99.90;;;;;;5052867;28;20132;-70
2022/11/10 12:23:33;;;;;;;14.20;2.70;;;17.70;99.90;;;;;;5052836;28;20055;-71
2022/11/10 12:26:39;;;;;;;11.23;2.30;;;17.30;99.90;;;;;;5041947;28;20028;-70
2022/11/10 12:29:30;;;;;;;6.72;1.98;;;16.70;99.90;;;;;;5039947;28;20106;-71
2022/11/10 12:32:30;;;;;;;13.00;3.97;;;16.20;99.90;;;;;;5052670;28;20043;-71
2022/11/10 12:35:20;;;;;;;15.30;3.30;;;16.00;99.90;;;;;;5052750;28;20035;-71
2022/11/10 12:38:12;;;;;;;9.43;2.17;;;16.40;99.90;;;;;;5040154;28;20510;-71
2022/11/10 12:41:03;;;;;;;14.60;2.80;;;16.50;99.90;;;;;;5053151;28;20495;-71
2022/11/10 12:43:51;;;;;;;12.40;2.38;;;16.50;99.90;;;;;;5052609;28;20111;-71
2022/11/10 12:46:35;;;;;;;12.80;2.70;;;16.90;99.90;;;;;;5040754;28;20075;-73
2022/11/10 12:49:40;;;;;;;12.82;2.70;;;17.60;99.90;;;;;;5052590;28;20532;-71
2022/11/10 12:52:34;;;;;;;18.92;3.60;;;18.40;99.90;;;;;;5052432;28;20402;-71
2022/11/10 12:55:31;;;;;;;14.40;3.25;;;18.60;99.90;;;;;;5052627;28;20032;-72
2022/11/10 12:58:17;;;;;;;8.13;2.47;;;18.80;99.90;;;;;;5039203;28;20072;-70
2022/11/10 13:01:05;;;;;;;9.63;2.63;;;18.90;99.90;;;;;;5052234;28;20520;-69
2022/11/10 13:03:58;;;;;;;11.13;2.72;;;18.10;99.90;;;;;;5052396;28;20056;-70
2022/11/10 13:06:54;;;;;;;11.90;2.88;;;18.30;99.90;;;;;;5038567;28;20166;-69
2022/11/10 13:09:42;;;;;;;12.73;2.58;;;18.60;99.90;;;;;;5052360;28;20044;-69
2022/11/10 13:12:26;;;;;;;9.15;2.28;;;18.20;99.90;;;;;;5052642;28;20119;-69
2022/11/10 13:15:36;;;;;;;12.50;2.80;;;19.10;99.90;;;;;;5052538;28;20044;-72
2022/11/10 13:18:40;;;;;;;6.18;2.00;;;18.20;99.90;;;;;;5052269;28;20044;-71
2022/11/10 13:21:49;;;;;;;6.40;2.35;;;18.10;99.90;;;;;;5052282;28;20044;-72
2022/11/10 13:24:39;;;;;;;14.82;2.83;;;17.50;99.90;;;;;;5041580;28;20040;-71
2022/11/10 13:27:45;;;;;;;8.52;2.30;;;17.70;99.90;;;;;;5051504;28;20109;-70
2022/11/10 13:30:44;;;;;;;10.88;2.33;;;17.40;99.90;;;;;;5051021;28;20178;-72
2022/11/10 13:33:37;;;;;;;13.82;3.33;;;17.70;99.90;;;;;;5053719;28;20044;-72
2022/11/10 13:36:42;;;;;;;18.30;4.40;;;17.70;99.90;;;;;;5044189;28;20048;-71
2022/11/10 13:39:31;;;;;;;4.88;1.98;;;18.10;99.90;;;;;;5055969;28;20063;-70
2022/11/10 13:42:18;;;;;;;16.38;2.67;;;18.30;99.90;;;;;;5054641;28;20063;-68
2022/11/10 13:45:28;;;;;;;10.23;1.77;;;18.00;99.90;;;;;;5055859;28;20119;-69
2022/11/10 13:48:12;;;;;;;11.50;2.05;;;18.20;99.90;;;;;;5042900;28;20183;-69
2022/11/10 13:51:34;;;;;;;7.60;2.17;;;17.80;99.90;;;;;;5055785;28;20104;-69
2022/11/10 13:54:55;;;;;;;7.88;1.90;;;16.90;99.90;;;;;;5055820;28;20048;-68
2022/11/10 13:57:51;;;;;;;18.58;3.20;;;17.20;99.90;;;;;;5055360;28;20079;-69
2022/11/10 14:00:36;;;;;;;16.83;5.78;;;17.50;99.90;;;;;;5055908;28;20596;-69
2022/11/10 14:03:59;;;;;;;13.75;3.35;;;17.60;99.90;;;;;;5042148;28;20036;-68
2022/11/10 14:06:48;;;;;;;10.63;3.78;;;17.90;99.90;;;;;;5053640;28;20056;-69
2022/11/10 14:09:41;;;;;;;9.30;2.00;;;17.70;99.90;;;;;;5050719;28;20044;-69
2022/11/10 14:12:44;;;;;;;13.10;4.07;;;17.50;99.90;;;;;;5055197;28;20123;-69
2022/11/10 14:15:47;;;;;;;13.48;3.28;;;17.40;99.90;;;;;;5055061;28;20095;-69
2022/11/10 14:18:45;;;;;;;9.27;2.88;;;17.50;99.90;;;;;;5054271;28;20135;-69
2022/11/10 14:21:32;;;;;;;9.88;2.05;;;17.40;99.90;;;;;;5055342;28;20078;-69
2022/11/10 14:24:51;;;;;;;10.70;2.58;;;17.00;99.90;;;;;;5054302;28;20515;-69
2022/11/10 14:27:37;;;;;;;10.93;2.38;;;17.00;99.90;;;;;;5053601;28;20504;-69
2022/11/10 14:30:32;;;;;;;9.85;2.42;;;17.00;99.90;;;;;;5055163;28;20401;-69
2022/11/10 14:33:16;;;;;;;11.77;2.75;;;16.80;99.90;;;;;;5055169;28;20457;-69
2022/11/10 14:36:03;;;;;;;11.27;3.03;;;17.10;99.90;;;;;;5054826;28;20531;-69
2022/11/10 14:38:48;;;;;;;9.68;2.28;;;17.20;99.90;;;;;;5054494;28;20500;-70
2022/11/10 14:41:33;;;;;;;14.75;2.33;;;17.10;99.90;;;;;;5054722;28;20046;-70
2022/11/10 14:44:25;;;;;;;15.07;2.10;;;16.60;99.90;;;;;;5054196;28;20401;-72